Time;durP1;ratioP1;P1;durP2;ratioP2;P2;SDS_P1;SDS_P2;PMS_P1;PMS_P2;Temp;Humidity;BMP_temperature;BMP_pressure;BME280_temperature;BME280_humidity;BME280_pressure;Samples;Min_cycle;Max_cycle;Signal;HPM_P1;HPM_P2
2022/05/31 00:01:31;;;;;;;11.30;7.68;;;8.20;86.80;;;;;;5033515;28;20030;-43
2022/05/31 00:03:59;;;;;;;10.85;7.65;;;8.20;86.60;;;;;;5052367;28;20532;-44
2022/05/31 00:06:24;;;;;;;10.80;8.63;;;8.10;86.70;;;;;;5050395;28;20100;-43
2022/05/31 00:08:55;;;;;;;8.43;7.53;;;8.10;87.00;;;;;;5022828;28;20140;-45
2022/05/31 00:11:21;;;;;;;10.85;7.22;;;8.10;87.00;;;;;;5037457;28;20040;-44
2022/05/31 00:13:47;;;;;;;8.13;6.65;;;8.10;86.90;;;;;;5041239;28;20370;-42
2022/05/31 00:16:13;;;;;;;8.80;7.65;;;8.10;87.00;;;;;;5036251;28;20033;-42
2022/05/31 00:18:38;;;;;;;9.68;7.25;;;8.10;86.80;;;;;;5049289;28;20056;-43
2022/05/31 00:21:05;;;;;;;8.82;7.85;;;8.10;87.00;;;;;;5043863;28;20044;-43
2022/05/31 00:23:34;;;;;;;8.88;6.90;;;8.10;87.00;;;;;;5030401;28;20075;-43
2022/05/31 00:25:59;;;;;;;8.98;6.07;;;8.00;87.10;;;;;;5029651;28;20112;-43
2022/05/31 00:28:25;;;;;;;10.77;7.53;;;8.10;87.30;;;;;;5030319;28;20112;-43
2022/05/31 00:30:52;;;;;;;8.43;7.03;;;8.10;87.30;;;;;;5031645;28;20034;-44
2022/05/31 00:33:18;;;;;;;8.95;7.05;;;8.10;87.20;;;;;;5050140;28;20040;-42
2022/05/31 00:35:46;;;;;;;9.82;7.20;;;8.20;87.30;;;;;;5047950;28;20021;-46
2022/05/31 00:38:13;;;;;;;8.30;7.30;;;8.20;87.20;;;;;;5051614;28;20055;-43
2022/05/31 00:40:39;;;;;;;10.63;6.78;;;8.10;87.10;;;;;;5045195;28;20026;-43
2022/05/31 00:43:22;;;;;;;9.35;6.10;;;8.10;87.10;;;;;;5044920;28;20083;-45
2022/05/31 00:45:54;;;;;;;8.60;6.60;;;8.10;87.00;;;;;;5050397;28;20029;-43
2022/05/31 00:48:46;;;;;;;8.35;7.43;;;8.10;86.90;;;;;;5050279;28;20043;-44
2022/05/31 00:51:14;;;;;;;9.20;6.32;;;8.10;87.00;;;;;;5045472;28;20094;-44
2022/05/31 00:53:51;;;;;;;8.57;6.25;;;8.00;86.80;;;;;;5030695;28;20057;-43
2022/05/31 00:56:21;;;;;;;8.50;6.75;;;8.00;86.90;;;;;;5032036;28;20036;-42
2022/05/31 00:59:04;;;;;;;9.50;7.15;;;7.90;86.80;;;;;;5039260;28;20104;-42
2022/05/31 01:01:33;;;;;;;7.60;6.18;;;7.90;86.60;;;;;;5015929;28;20816;-43
2022/05/31 01:04:00;;;;;;;7.32;5.32;;;7.90;86.50;;;;;;5038847;28;20677;-42
2022/05/31 01:06:26;;;;;;;8.38;7.45;;;7.90;86.60;;;;;;5014429;28;20068;-44
2022/05/31 01:08:55;;;;;;;7.55;6.35;;;7.80;86.40;;;;;;5050018;28;20064;-43
2022/05/31 01:11:23;;;;;;;8.00;6.28;;;7.70;86.40;;;;;;5043151;28;20083;-42
2022/05/31 01:13:49;;;;;;;8.75;6.90;;;7.60;86.40;;;;;;5037990;28;20362;-43
2022/05/31 01:16:15;;;;;;;10.50;7.25;;;7.60;86.60;;;;;;5033360;28;20025;-44
2022/05/31 01:18:41;;;;;;;9.65;7.63;;;7.60;86.80;;;;;;5048326;28;20028;-44
2022/05/31 01:21:08;;;;;;;9.20;7.20;;;7.50;86.50;;;;;;5048329;28;20034;-42
2022/05/31 01:23:54;;;;;;;11.98;7.05;;;7.50;86.60;;;;;;5034521;28;20086;-43
2022/05/31 01:26:35;;;;;;;7.95;6.15;;;7.40;86.70;;;;;;5032052;28;20029;-44
2022/05/31 01:29:03;;;;;;;8.60;6.68;;;7.40;86.70;;;;;;5049005;28;20067;-44
2022/05/31 01:31:39;;;;;;;8.45;6.32;;;7.40;86.70;;;;;;5047545;28;20434;-43
2022/05/31 01:34:11;;;;;;;9.23;6.78;;;7.30;86.50;;;;;;5038052;28;20029;-44
2022/05/31 01:36:49;;;;;;;9.63;6.68;;;7.40;86.70;;;;;;5029612;28;20021;-43
2022/05/31 01:39:38;;;;;;;9.98;6.93;;;7.40;86.60;;;;;;5029290;28;20100;-43
2022/05/31 01:42:13;;;;;;;9.57;7.25;;;7.30;86.50;;;;;;5039842;28;20045;-42
2022/05/31 01:44:43;;;;;;;8.38;7.10;;;7.30;86.50;;;;;;5033338;28;20112;-45
2022/05/31 01:47:09;;;;;;;;;;;7.20;86.50;;;;;;5029935;28;20442;-42
2022/05/31 01:49:39;;;;;;;9.63;6.90;;;7.20;86.80;;;;;;5030413;28;19909;-43
2022/05/31 01:52:06;;;;;;;10.13;8.40;;;7.20;87.00;;;;;;5036075;28;20049;-42
2022/05/31 01:54:33;;;;;;;9.18;7.90;;;7.30;87.10;;;;;;5029619;28;20389;-43
2022/05/31 01:57:04;;;;;;;8.85;6.35;;;7.30;87.20;;;;;;5028641;28;20496;-43
2022/05/31 01:59:37;;;;;;;10.27;7.18;;;7.40;87.20;;;;;;5029544;28;20025;-45
2022/05/31 02:02:05;;;;;;;7.57;6.57;;;7.30;87.00;;;;;;5043125;28;20033;-42
2022/05/31 02:04:31;;;;;;;8.35;6.65;;;7.30;87.10;;;;;;5035374;28;20029;-42
2022/05/31 02:07:11;;;;;;;8.50;6.30;;;7.30;87.30;;;;;;5042907;28;20099;-41
2022/05/31 02:09:41;;;;;;;8.55;6.97;;;7.30;87.50;;;;;;5017218;28;20038;-42
2022/05/31 02:12:09;;;;;;;8.07;6.47;;;7.30;87.50;;;;;;5038292;28;20079;-43
2022/05/31 02:14:35;;;;;;;8.70;5.28;;;7.40;87.50;;;;;;5035960;28;20134;-43
2022/05/31 02:17:03;;;;;;;6.88;5.43;;;7.40;87.50;;;;;;5048478;28;20033;-45
2022/05/31 02:19:32;;;;;;;9.32;6.18;;;7.40;87.50;;;;;;5041070;28;20022;-42
2022/05/31 02:22:02;;;;;;;7.43;5.65;;;7.50;87.40;;;;;;5029083;28;20033;-41
2022/05/31 02:24:28;;;;;;;8.65;5.57;;;7.50;87.40;;;;;;5027968;28;20037;-44
2022/05/31 02:26:55;;;;;;;6.32;4.72;;;7.40;87.10;;;;;;5029875;28;20030;-43
2022/05/31 02:29:25;;;;;;;6.65;4.80;;;7.40;87.10;;;;;;5029531;28;20044;-43
2022/05/31 02:31:51;;;;;;;6.68;4.32;;;7.40;87.10;;;;;;5028631;28;20430;-42
2022/05/31 02:34:22;;;;;;;5.97;4.65;;;7.40;87.30;;;;;;5029675;28;20071;-42
2022/05/31 02:36:50;;;;;;;7.18;5.50;;;7.40;87.10;;;;;;5048614;28;20021;-42
2022/05/31 02:39:16;;;;;;;7.43;5.65;;;7.40;87.20;;;;;;5044508;28;20032;-48
2022/05/31 02:41:42;;;;;;;7.40;5.93;;;7.30;87.40;;;;;;5043642;28;20033;-41
2022/05/31 02:44:08;;;;;;;7.95;5.35;;;7.40;87.60;;;;;;5027972;28;20461;-42
2022/05/31 02:46:35;;;;;;;7.20;4.68;;;7.30;87.80;;;;;;5029539;28;20119;-43
2022/05/31 02:49:02;;;;;;;6.97;4.97;;;7.40;87.90;;;;;;5027724;28;20036;-42
2022/05/31 02:51:28;;;;;;;9.82;5.70;;;7.40;87.90;;;;;;5045211;28;20407;-45
2022/05/31 02:53:53;;;;;;;7.43;5.15;;;7.40;87.80;;;;;;5027906;28;20127;-42
2022/05/31 02:56:19;;;;;;;8.07;5.28;;;7.40;87.90;;;;;;5048310;28;20147;-47
2022/05/31 02:58:45;;;;;;;8.93;6.88;;;7.40;87.80;;;;;;5048889;28;20083;-41
2022/05/31 03:01:31;;;;;;;11.35;7.70;;;7.40;87.90;;;;;;5047122;28;20029;-44
2022/05/31 03:03:58;;;;;;;12.25;8.40;;;7.40;88.00;;;;;;5041454;28;20037;-42
2022/05/31 03:06:24;;;;;;;11.00;7.93;;;7.50;88.10;;;;;;5037302;28;20041;-43
2022/05/31 03:08:50;;;;;;;10.98;8.18;;;7.50;88.00;;;;;;5044980;28;20036;-43
2022/05/31 03:11:22;;;;;;;11.15;7.30;;;7.60;88.10;;;;;;5045307;28;20025;-41
2022/05/31 03:13:51;;;;;;;12.82;8.27;;;7.60;88.00;;;;;;5035703;28;20528;-45
2022/05/31 03:16:18;;;;;;;12.30;7.32;;;7.60;88.10;;;;;;5028008;28;20370;-41
2022/05/31 03:18:49;;;;;;;12.00;7.78;;;7.70;88.10;;;;;;5028613;28;20152;-42
2022/05/31 03:21:22;;;;;;;11.43;8.07;;;7.70;88.10;;;;;;5047861;28;20029;-43
2022/05/31 03:24:07;;;;;;;10.48;8.00;;;7.80;88.10;;;;;;5043087;28;20096;-44
2022/05/31 03:26:36;;;;;;;13.77;8.15;;;7.90;88.10;;;;;;5009704;28;20092;-41
2022/05/31 03:29:03;;;;;;;12.57;8.30;;;7.90;88.10;;;;;;5026166;28;20120;-44
2022/05/31 03:31:30;;;;;;;11.68;8.35;;;7.90;88.10;;;;;;5029786;28;20030;-42
2022/05/31 03:33:56;;;;;;;12.50;9.45;;;8.00;88.20;;;;;;5027170;28;20017;-44
2022/05/31 03:36:22;;;;;;;14.55;8.52;;;8.10;88.20;;;;;;5026808;28;20037;-44
2022/05/31 03:38:47;;;;;;;11.02;8.57;;;8.10;88.30;;;;;;5027598;28;20025;-42
2022/05/31 03:41:13;;;;;;;10.60;7.68;;;8.10;88.20;;;;;;5027693;28;20039;-43
2022/05/31 03:43:41;;;;;;;9.60;6.70;;;8.20;88.20;;;;;;5028099;28;20034;-43
2022/05/31 03:46:13;;;;;;;10.15;7.10;;;8.20;88.30;;;;;;5027645;28;20029;-43
2022/05/31 03:48:38;;;;;;;8.85;6.53;;;8.30;88.30;;;;;;5025714;28;20052;-43
2022/05/31 03:51:06;;;;;;;7.88;6.13;;;8.40;88.20;;;;;;5029638;28;20057;-44
2022/05/31 03:53:32;;;;;;;8.45;6.22;;;8.40;88.10;;;;;;5027842;28;20041;-43
2022/05/31 03:56:01;;;;;;;8.80;5.82;;;8.50;88.10;;;;;;5026016;28;20032;-42
2022/05/31 03:58:27;;;;;;;9.20;6.00;;;8.60;88.10;;;;;;5027100;28;20021;-42
2022/05/31 04:00:52;;;;;;;7.00;5.35;;;8.70;88.10;;;;;;5026042;28;20029;-43
2022/05/31 04:03:18;;;;;;;8.00;6.70;;;8.70;88.10;;;;;;5028959;28;20033;-43
2022/05/31 04:05:45;;;;;;;10.68;6.55;;;8.80;88.00;;;;;;5031522;28;20029;-42
2022/05/31 04:08:12;;;;;;;7.40;5.63;;;8.90;87.90;;;;;;5031809;28;20087;-42
2022/05/31 04:10:39;;;;;;;9.55;6.80;;;8.90;87.90;;;;;;5040941;28;20056;-43
2022/05/31 04:13:08;;;;;;;9.00;6.40;;;9.00;87.80;;;;;;5037374;28;20029;-43
2022/05/31 04:15:33;;;;;;;9.48;7.28;;;9.10;88.00;;;;;;5040421;28;20032;-42
2022/05/31 04:18:00;;;;;;;9.52;7.93;;;9.10;87.90;;;;;;5032654;28;20342;-41
2022/05/31 04:20:25;;;;;;;8.30;6.82;;;9.20;88.00;;;;;;5029834;28;20030;-42
2022/05/31 04:23:57;;;;;;;7.35;6.28;;;9.20;88.00;;;;;;5040712;28;20446;-45
2022/05/31 04:25:37;;;;;;;8.40;7.20;;;9.30;88.10;;;;;;5038679;28;20068;-46
2022/05/31 04:28:03;;;;;;;8.45;7.22;;;9.40;88.20;;;;;;5051727;28;20068;-44
2022/05/31 04:30:28;;;;;;;9.05;7.20;;;9.50;88.10;;;;;;5048968;28;20029;-42
2022/05/31 04:32:54;;;;;;;10.00;7.60;;;9.50;88.00;;;;;;5050299;28;20029;-42
2022/05/31 04:35:19;;;;;;;8.40;6.93;;;9.60;87.80;;;;;;5048355;28;20021;-43
2022/05/31 04:37:47;;;;;;;7.93;6.78;;;9.70;87.90;;;;;;5031002;28;20108;-42
2022/05/31 04:40:13;;;;;;;7.93;7.13;;;9.70;87.80;;;;;;5033747;28;20021;-45
2022/05/31 04:42:39;;;;;;;8.20;7.20;;;9.80;87.90;;;;;;5032434;28;20118;-42
2022/05/31 04:45:05;;;;;;;8.40;7.13;;;9.80;87.80;;;;;;5042131;28;20453;-43
2022/05/31 04:47:31;;;;;;;10.10;7.35;;;9.80;87.90;;;;;;5031419;28;20040;-43
2022/05/31 04:49:57;;;;;;;10.75;7.30;;;9.90;88.00;;;;;;5036921;28;20022;-43
2022/05/31 04:52:23;;;;;;;11.35;8.20;;;10.00;88.00;;;;;;5028251;28;20092;-42
2022/05/31 04:54:49;;;;;;;10.98;7.13;;;10.00;87.80;;;;;;5027966;28;20133;-42
2022/05/31 04:57:17;;;;;;;9.43;7.68;;;10.00;87.70;;;;;;5029444;28;20105;-43
2022/05/31 04:59:47;;;;;;;8.07;6.70;;;10.10;87.90;;;;;;5030294;28;20104;-43
2022/05/31 05:02:13;;;;;;;8.90;7.60;;;10.20;87.90;;;;;;5029493;28;20501;-44
2022/05/31 05:04:38;;;;;;;9.23;7.63;;;10.20;87.90;;;;;;5027003;28;20025;-43
2022/05/31 05:07:04;;;;;;;9.10;7.45;;;10.20;88.00;;;;;;5029900;28;20095;-42
2022/05/31 05:09:30;;;;;;;10.05;7.45;;;10.30;88.00;;;;;;5027972;28;20106;-44
2022/05/31 05:11:55;;;;;;;9.38;6.72;;;10.30;88.10;;;;;;5029563;28;20048;-43
2022/05/31 05:14:21;;;;;;;10.57;7.07;;;10.30;88.10;;;;;;5027826;28;20041;-43
2022/05/31 05:16:47;;;;;;;9.45;7.30;;;10.40;88.20;;;;;;5028207;28;20389;-43
2022/05/31 05:19:14;;;;;;;8.55;6.60;;;10.50;88.20;;;;;;5034138;28;20037;-43
2022/05/31 05:21:40;;;;;;;8.75;7.35;;;10.60;88.10;;;;;;5028569;28;20021;-45
2022/05/31 05:24:08;;;;;;;8.57;7.45;;;10.70;88.00;;;;;;5028713;28;20125;-43
2022/05/31 05:26:33;;;;;;;9.77;6.97;;;10.70;88.00;;;;;;5030080;28;20421;-42
2022/05/31 05:31:46;;;;;;;8.35;7.35;;;10.80;87.50;;;;;;5029588;28;20109;-45
2022/05/31 05:34:14;;;;;;;8.23;6.43;;;11.00;87.50;;;;;;5029175;28;20686;-43
2022/05/31 05:36:40;;;;;;;8.27;6.60;;;11.00;87.40;;;;;;5028381;28;20044;-45
2022/05/31 05:39:10;;;;;;;7.70;5.95;;;11.00;86.80;;;;;;5027431;28;20025;-46
2022/05/31 05:41:36;;;;;;;10.90;5.75;;;11.10;86.80;;;;;;5028869;28;20017;-42
2022/05/31 05:44:04;;;;;;;7.50;5.22;;;11.10;86.30;;;;;;5028330;28;20026;-43
2022/05/31 05:46:35;;;;;;;6.45;5.43;;;11.10;86.30;;;;;;5028794;28;20034;-42
2022/05/31 05:49:01;;;;;;;6.43;4.90;;;11.20;86.40;;;;;;5030345;28;20057;-43
2022/05/31 05:51:32;;;;;;;8.15;5.97;;;11.30;86.20;;;;;;5026956;28;20113;-43
2022/05/31 05:53:59;;;;;;;6.82;5.68;;;11.40;85.80;;;;;;5024320;28;20389;-43
2022/05/31 05:56:25;;;;;;;8.30;6.18;;;11.40;85.60;;;;;;5028074;28;20032;-45
2022/05/31 05:58:51;;;;;;;7.03;5.40;;;11.40;85.70;;;;;;5030746;28;20033;-43
2022/05/31 06:01:46;;;;;;;7.43;5.40;;;11.50;85.60;;;;;;5028376;28;20074;-44
2022/05/31 06:04:11;;;;;;;7.47;5.70;;;11.50;85.40;;;;;;5049882;28;20067;-43
2022/05/31 06:06:39;;;;;;;6.88;5.25;;;11.60;85.40;;;;;;5037288;28;20078;-45
2022/05/31 06:09:11;;;;;;;7.07;5.20;;;11.60;85.40;;;;;;5027540;28;20467;-43
2022/05/31 06:11:45;;;;;;;7.47;4.45;;;11.70;85.30;;;;;;5028827;28;20089;-45
2022/05/31 06:14:21;;;;;;;6.45;4.93;;;11.70;85.20;;;;;;5027324;28;20095;-46
2022/05/31 06:16:56;;;;;;;7.13;5.63;;;11.80;85.10;;;;;;5029130;28;20041;-49
2022/05/31 06:19:27;;;;;;;6.07;4.75;;;11.80;84.60;;;;;;5039186;28;20052;-44
2022/05/31 06:21:53;;;;;;;5.75;4.60;;;11.90;84.70;;;;;;5028443;28;20026;-43
2022/05/31 06:24:23;;;;;;;6.15;4.50;;;12.00;84.20;;;;;;5032872;28;20028;-44
2022/05/31 06:26:49;;;;;;;6.47;5.03;;;12.10;84.30;;;;;;5038577;28;20053;-43
2022/05/31 06:29:15;;;;;;;7.57;5.25;;;12.20;84.10;;;;;;5028025;28;20079;-45
2022/05/31 06:31:40;;;;;;;7.05;4.93;;;12.30;83.70;;;;;;5027251;28;20091;-45
2022/05/31 06:34:06;;;;;;;7.82;5.18;;;12.50;83.90;;;;;;5028755;28;20037;-44
2022/05/31 06:36:31;;;;;;;5.65;4.45;;;12.60;83.40;;;;;;5031220;28;20036;-44
2022/05/31 06:38:57;;;;;;;5.80;4.47;;;12.60;82.60;;;;;;5029541;28;20334;-46
2022/05/31 06:41:22;;;;;;;6.65;5.05;;;12.60;82.40;;;;;;5029001;28;20166;-44
2022/05/31 06:43:48;;;;;;;7.72;4.00;;;12.70;82.10;;;;;;5037216;28;20029;-45
2022/05/31 06:46:14;;;;;;;6.57;4.07;;;12.70;81.90;;;;;;5029223;28;20033;-47
2022/05/31 06:48:41;;;;;;;5.85;3.55;;;12.70;81.10;;;;;;5038006;28;20039;-48
2022/05/31 06:51:12;;;;;;;7.63;3.40;;;12.70;80.00;;;;;;5020791;28;20052;-43
2022/05/31 06:59:06;;;;;;;4.85;2.92;;;12.70;78.80;;;;;;5023709;28;20078;-47
2022/05/31 07:01:31;;;;;;;6.28;3.28;;;12.70;78.50;;;;;;5017781;28;20112;-46
2022/05/31 07:04:03;;;;;;;6.75;2.50;;;12.70;78.00;;;;;;5024412;28;20114;-43
2022/05/31 07:06:30;;;;;;;6.15;3.00;;;12.80;77.60;;;;;;5023683;28;20362;-46
2022/05/31 07:08:56;;;;;;;5.35;2.78;;;12.90;77.60;;;;;;5023258;28;20026;-47
2022/05/31 07:11:23;;;;;;;4.88;2.55;;;12.90;77.40;;;;;;5020154;28;20075;-43
2022/05/31 07:13:49;;;;;;;5.72;2.90;;;13.00;76.90;;;;;;5024911;28;20366;-44
2022/05/31 07:16:17;;;;;;;6.63;2.85;;;13.00;76.90;;;;;;5024553;28;20025;-45
2022/05/31 07:18:43;;;;;;;4.68;2.70;;;13.10;75.90;;;;;;5023466;28;20514;-46
2022/05/31 07:21:09;;;;;;;3.75;2.30;;;13.10;75.70;;;;;;5025508;28;20108;-44
2022/05/31 07:23:35;;;;;;;3.50;2.70;;;13.20;76.60;;;;;;5024312;28;20037;-46
2022/05/31 07:26:02;;;;;;;5.60;2.08;;;13.30;75.70;;;;;;5023593;28;20025;-45
2022/05/31 07:28:28;;;;;;;3.63;2.00;;;13.40;75.10;;;;;;5020425;28;20065;-46
2022/05/31 07:30:55;;;;;;;4.53;2.20;;;13.40;74.50;;;;;;5025211;28;20084;-49
2022/05/31 07:33:21;;;;;;;3.20;2.30;;;13.40;74.40;;;;;;5025915;28;20037;-46
2022/05/31 07:35:49;;;;;;;4.93;2.08;;;13.40;73.90;;;;;;5023892;28;20021;-49
2022/05/31 07:38:16;;;;;;;4.22;2.20;;;13.40;73.30;;;;;;5027660;28;20040;-46
2022/05/31 07:40:43;;;;;;;4.20;2.17;;;13.50;73.40;;;;;;5027484;28;20036;-47
2022/05/31 07:43:10;;;;;;;3.28;1.95;;;13.50;73.40;;;;;;5029040;28;20374;-46
2022/05/31 07:45:36;;;;;;;4.88;2.30;;;13.50;71.30;;;;;;5027391;28;20437;-47
2022/05/31 07:48:02;;;;;;;4.22;1.80;;;13.50;71.80;;;;;;5027647;28;20366;-49
2022/05/31 07:50:28;;;;;;;3.80;2.35;;;13.60;73.00;;;;;;5029574;28;20037;-46
2022/05/31 07:52:56;;;;;;;3.88;2.25;;;13.70;73.50;;;;;;5027094;28;20418;-47
2022/05/31 07:55:22;;;;;;;4.60;1.73;;;13.70;72.40;;;;;;5027174;28;20038;-46
2022/05/31 08:00:34;;;;;;;4.93;2.00;;;13.90;71.80;;;;;;5027936;28;20050;-46
2022/05/31 08:03:00;;;;;;;3.88;2.35;;;14.10;71.30;;;;;;5025613;28;20030;-49
2022/05/31 08:05:30;;;;;;;5.10;1.88;;;14.20;70.70;;;;;;5023384;28;20374;-47
2022/05/31 08:07:55;;;;;;;;;;;14.40;70.90;;;;;;5025479;28;20025;-44
2022/05/31 08:10:21;;;;;;;3.38;1.92;;;14.60;70.00;;;;;;5029710;28;19908;-47
2022/05/31 08:12:47;;;;;;;3.85;1.83;;;14.90;68.90;;;;;;5027192;28;20691;-48
2022/05/31 08:15:13;;;;;;;3.83;1.52;;;14.90;68.60;;;;;;5025963;28;20033;-44
2022/05/31 08:17:39;;;;;;;3.53;1.50;;;15.20;68.70;;;;;;5027172;28;20064;-48
2022/05/31 08:20:06;;;;;;;3.95;1.70;;;15.50;66.30;;;;;;5027932;28;20124;-47
2022/05/31 08:22:33;;;;;;;5.00;2.45;;;15.50;66.40;;;;;;5025933;28;21581;-48
2022/05/31 08:24:59;;;;;;;3.90;1.83;;;15.60;65.90;;;;;;5026314;28;20037;-46
2022/05/31 08:27:24;;;;;;;3.80;1.40;;;15.90;65.10;;;;;;5027411;28;20047;-47
2022/05/31 08:29:50;;;;;;;3.38;1.90;;;16.20;64.20;;;;;;5027390;28;20038;-48
2022/05/31 08:32:16;;;;;;;5.15;1.83;;;16.50;61.90;;;;;;5027784;28;20041;-44
2022/05/31 08:34:44;;;;;;;4.97;1.95;;;16.90;61.00;;;;;;5027861;28;20033;-48
2022/05/31 08:37:10;;;;;;;3.47;1.75;;;16.90;62.70;;;;;;5021422;28;20113;-45
2022/05/31 08:39:38;;;;;;;3.60;1.50;;;17.20;59.80;;;;;;5028359;28;20522;-45
2022/05/31 08:42:08;;;;;;;3.83;1.63;;;17.40;60.40;;;;;;5026687;28;20036;-49
2022/05/31 08:44:56;;;;;;;4.80;1.77;;;17.90;59.90;;;;;;5027692;28;20037;-46
2022/05/31 08:47:31;;;;;;;3.03;1.35;;;18.10;58.90;;;;;;5025771;28;20599;-46
2022/05/31 08:52:57;;;;;;;3.17;1.70;;;18.20;59.00;;;;;;5026761;28;20505;-45
2022/05/31 08:58:32;;;;;;;;;;;18.10;58.50;;;;;;5029150;28;20046;-47
2022/05/31 09:00:59;;;;;;;4.38;2.03;;;18.20;57.50;;;;;;5024047;28;19920;-47
2022/05/31 09:03:35;;;;;;;3.72;2.17;;;18.00;59.20;;;;;;5012015;28;20044;-45
2022/05/31 09:06:30;;;;;;;2.80;1.60;;;17.90;59.00;;;;;;5025913;28;20040;-48
2022/05/31 09:09:01;;;;;;;3.90;1.85;;;18.20;59.80;;;;;;5027190;28;20021;-46
2022/05/31 09:11:34;;;;;;;4.57;2.38;;;18.40;60.20;;;;;;5026010;28;20147;-51
2022/05/31 09:14:17;;;;;;;4.35;2.35;;;18.90;56.40;;;;;;5026316;28;20102;-47
2022/05/31 09:16:51;;;;;;;6.55;2.30;;;18.80;54.70;;;;;;5022532;28;20040;-44
2022/05/31 09:19:44;;;;;;;3.72;1.98;;;18.80;55.20;;;;;;5026759;28;20053;-45
2022/05/31 09:22:10;;;;;;;5.05;1.95;;;18.70;57.50;;;;;;5026623;28;20354;-44
2022/05/31 09:24:45;;;;;;;4.70;2.38;;;18.80;56.50;;;;;;5027816;28;20132;-47
2022/05/31 09:27:33;;;;;;;3.70;1.85;;;19.10;57.70;;;;;;5027117;28;20063;-48
2022/05/31 09:30:14;;;;;;;2.97;1.52;;;19.50;56.50;;;;;;5021345;28;20099;-47
2022/05/31 09:33:11;;;;;;;3.75;2.00;;;19.90;52.20;;;;;;5029865;28;20041;-49
2022/05/31 09:36:10;;;;;;;2.35;1.52;;;19.90;52.10;;;;;;5026261;28;20478;-47
2022/05/31 09:39:07;;;;;;;3.67;1.70;;;19.80;54.50;;;;;;5029607;28;20079;-47
2022/05/31 09:42:06;;;;;;;3.90;1.65;;;20.00;52.20;;;;;;5024501;28;20036;-45
2022/05/31 09:44:40;;;;;;;4.27;2.03;;;20.40;54.50;;;;;;5025755;28;20040;-47
2022/05/31 09:47:19;;;;;;;3.60;2.08;;;20.50;55.50;;;;;;5025864;28;20043;-48
2022/05/31 09:49:51;;;;;;;3.25;1.83;;;20.40;53.00;;;;;;5028545;28;20111;-47
2022/05/31 09:52:37;;;;;;;4.00;2.08;;;20.10;51.10;;;;;;5024481;28;20037;-47
2022/05/31 09:58:10;;;;;;;7.68;2.63;;;19.50;54.80;;;;;;5021203;28;21324;-49
2022/05/31 10:00:39;;;;;;;6.70;1.80;;;19.50;55.50;;;;;;5022296;28;21357;-46
2022/05/31 10:03:11;;;;;;;4.43;2.20;;;19.30;56.60;;;;;;5027264;28;20033;-47
2022/05/31 10:05:39;;;;;;;5.93;2.60;;;19.10;55.00;;;;;;5025665;28;20038;-46
2022/05/31 10:08:32;;;;;;;3.70;2.00;;;19.40;56.30;;;;;;5025286;28;20049;-48
2022/05/31 10:11:04;;;;;;;3.92;1.70;;;19.50;52.70;;;;;;5022261;28;20026;-47
2022/05/31 10:13:37;;;;;;;5.20;1.88;;;19.50;53.30;;;;;;5025763;28;20091;-46
2022/05/31 10:16:17;;;;;;;2.90;2.20;;;19.60;55.50;;;;;;5024854;28;20033;-45
2022/05/31 10:18:46;;;;;;;;;;;19.30;54.80;;;;;;5025643;28;20025;-45
2022/05/31 10:21:12;;;;;;;;;;;18.90;55.50;;;;;;5021886;28;20418;-45
2022/05/31 10:23:43;;;;;;;5.72;2.13;;;18.70;55.00;;;;;;5025840;28;19917;-46
2022/05/31 10:26:23;;;;;;;3.88;1.98;;;18.70;57.20;;;;;;5026761;28;20450;-46
2022/05/31 10:29:10;;;;;;;3.90;2.00;;;18.90;55.10;;;;;;5024774;28;20052;-44
2022/05/31 10:31:41;;;;;;;4.07;1.90;;;18.80;58.90;;;;;;5025052;28;20033;-44
2022/05/31 10:34:35;;;;;;;4.13;2.58;;;18.50;56.60;;;;;;5025011;28;20184;-45
2022/05/31 10:37:03;;;;;;;4.80;2.03;;;18.50;58.20;;;;;;5025405;28;20040;-46
2022/05/31 10:39:32;;;;;;;5.25;2.22;;;18.70;57.50;;;;;;5025639;28;20460;-46
2022/05/31 10:42:02;;;;;;;6.03;2.80;;;18.90;59.00;;;;;;5022001;28;20470;-45
2022/05/31 10:44:51;;;;;;;5.65;2.40;;;19.00;58.00;;;;;;5025915;28;20280;-47
2022/05/31 10:47:19;;;;;;;4.57;1.97;;;19.20;59.30;;;;;;5024856;28;20037;-46
2022/05/31 10:49:46;;;;;;;4.30;2.65;;;19.40;55.70;;;;;;5025792;28;20600;-48
2022/05/31 10:52:33;;;;;;;5.40;2.17;;;19.30;55.80;;;;;;5025048;28;20045;-45
2022/05/31 10:55:37;;;;;;;5.45;2.53;;;19.10;56.60;;;;;;5026803;28;20013;-45
2022/05/31 10:58:23;;;;;;;4.70;2.35;;;19.00;60.10;;;;;;5026035;28;20034;-47
2022/05/31 11:01:14;;;;;;;5.72;2.40;;;19.70;57.30;;;;;;5025073;28;20091;-45
2022/05/31 11:04:10;;;;;;;4.22;2.28;;;19.80;56.90;;;;;;5025001;28;20033;-45
2022/05/31 11:06:57;;;;;;;3.97;2.20;;;19.60;56.20;;;;;;5024649;28;20344;-46
2022/05/31 11:13:12;;;;;;;5.45;3.38;;;19.30;57.10;;;;;;5029722;28;20111;-48
2022/05/31 11:16:04;;;;;;;4.13;2.20;;;19.00;56.30;;;;;;5029764;28;20108;-45
2022/05/31 11:18:32;;;;;;;5.88;2.65;;;18.80;57.00;;;;;;5029428;28;20025;-45
2022/05/31 11:21:17;;;;;;;4.00;1.90;;;18.90;58.70;;;;;;5028310;28;20040;-48
2022/05/31 11:24:25;;;;;;;4.68;2.65;;;18.70;56.80;;;;;;5029086;28;20095;-45
2022/05/31 11:27:12;;;;;;;4.65;2.40;;;18.40;59.90;;;;;;5029055;28;20044;-48
2022/05/31 11:30:03;;;;;;;4.40;2.45;;;18.40;59.80;;;;;;5028672;28;20389;-46
2022/05/31 11:33:04;;;;;;;5.55;2.70;;;18.20;58.80;;;;;;5027631;28;20025;-46
2022/05/31 11:35:30;;;;;;;4.05;2.42;;;18.10;59.10;;;;;;5027737;28;20049;-45
2022/05/31 11:37:58;;;;;;;4.32;2.35;;;18.30;59.30;;;;;;5029150;28;20462;-45
2022/05/31 11:40:46;;;;;;;5.65;2.05;;;18.40;60.20;;;;;;5029198;28;20026;-45
2022/05/31 11:43:43;;;;;;;2.90;2.00;;;18.40;56.30;;;;;;5025227;28;20029;-46
2022/05/31 11:46:12;;;;;;;3.75;1.92;;;18.40;56.40;;;;;;5031941;28;20025;-46
2022/05/31 11:49:01;;;;;;;5.75;1.90;;;18.30;56.70;;;;;;5026710;28;20042;-51
2022/05/31 11:51:46;;;;;;;6.97;1.93;;;18.10;57.40;;;;;;5027562;28;20041;-46
2022/05/31 11:54:37;;;;;;;6.25;2.22;;;18.10;58.90;;;;;;5032839;28;20052;-49
2022/05/31 11:57:36;;;;;;;3.75;2.10;;;18.00;58.80;;;;;;5029087;28;20038;-51
2022/05/31 12:00:07;;;;;;;11.30;2.20;;;17.70;57.90;;;;;;5028548;28;20029;-46
2022/05/31 12:02:37;;;;;;;3.22;1.40;;;17.50;59.00;;;;;;5027555;28;20037;-47
2022/05/31 12:05:14;;;;;;;9.63;3.13;;;17.40;58.60;;;;;;5027960;28;20148;-46
2022/05/31 12:07:47;;;;;;;6.13;2.60;;;17.20;59.20;;;;;;5028538;28;20036;-48
2022/05/31 12:10:21;;;;;;;11.98;3.40;;;16.80;59.90;;;;;;5027910;28;20041;-45
2022/05/31 12:12:48;;;;;;;5.43;2.05;;;16.70;61.50;;;;;;5027677;28;20032;-45
2022/05/31 12:15:20;;;;;;;3.75;1.83;;;16.60;61.80;;;;;;5029592;28;20151;-45
2022/05/31 12:18:07;;;;;;;10.70;2.67;;;16.60;62.10;;;;;;5027999;28;20473;-49
2022/05/31 12:20:54;;;;;;;4.03;1.50;;;16.60;63.30;;;;;;5025987;28;20044;-48
2022/05/31 12:23:50;;;;;;;4.50;1.40;;;16.60;61.00;;;;;;5024856;28;20041;-45
2022/05/31 12:26:21;;;;;;;4.43;1.67;;;16.60;60.70;;;;;;5027671;28;20087;-46
2022/05/31 12:29:11;;;;;;;4.88;2.00;;;16.80;60.90;;;;;;5028015;28;20037;-49
2022/05/31 12:31:40;;;;;;;15.70;2.35;;;16.80;62.00;;;;;;5025880;28;20048;-48
2022/05/31 12:34:22;;;;;;;3.72;1.58;;;17.00;62.60;;;;;;5027005;28;20045;-48
2022/05/31 12:37:24;;;;;;;4.15;1.92;;;17.10;61.80;;;;;;5030267;28;20117;-46
2022/05/31 12:39:50;;;;;;;2.28;1.20;;;17.20;59.30;;;;;;4967030;28;20097;-46
2022/05/31 12:42:24;;;;;;;4.88;1.50;;;17.40;60.30;;;;;;4967469;28;20104;-46
2022/05/31 12:45:08;;;;;;;19.60;2.90;;;17.50;59.70;;;;;;4969099;28;20042;-44
2022/05/31 12:47:34;;;;;;;2.35;1.25;;;17.70;58.60;;;;;;4967989;28;20056;-47
2022/05/31 12:50:09;;;;;;;2.83;1.00;;;18.10;58.70;;;;;;4968639;28;20044;-45
2022/05/31 12:53:20;;;;;;;2.28;0.90;;;18.40;55.00;;;;;;4986101;28;20069;-46
2022/05/31 12:55:48;;;;;;;2.60;1.00;;;18.50;55.40;;;;;;4921124;29;20087;-47
2022/05/31 12:58:30;;;;;;;2.85;1.27;;;18.60;54.90;;;;;;4928002;29;20047;-47
2022/05/31 13:00:56;;;;;;;4.35;1.85;;;18.30;55.40;;;;;;4915421;29;20115;-45
2022/05/31 13:03:32;;;;;;;3.38;1.35;;;17.80;53.60;;;;;;4920705;29;20053;-44
2022/05/31 13:06:03;;;;;;;3.13;1.20;;;17.40;56.10;;;;;;4923047;29;20059;-47
2022/05/31 13:09:02;;;;;;;3.00;1.75;;;17.20;56.30;;;;;;4914425;29;20044;-45
2022/05/31 13:20:25;;;;;;;6.72;2.70;;;16.90;61.90;;;;;;4935169;29;20047;-47
2022/05/31 13:23:08;;;;;;;4.95;2.72;;;16.70;60.40;;;;;;4937408;29;20361;-47
2022/05/31 13:25:43;;;;;;;7.22;3.60;;;16.70;62.60;;;;;;4955260;28;20061;-50
2022/05/31 13:28:32;;;;;;;4.50;2.80;;;16.60;62.80;;;;;;5025422;28;20136;-47
2022/05/31 13:31:17;;;;;;;4.23;2.50;;;16.70;64.80;;;;;;5029037;28;20029;-45
2022/05/31 13:33:44;;;;;;;4.63;2.67;;;16.70;63.90;;;;;;5024902;28;20186;-45
2022/05/31 13:36:16;;;;;;;5.75;2.67;;;16.50;63.30;;;;;;5028309;28;20094;-46
2022/05/31 13:38:45;;;;;;;4.95;2.25;;;16.50;64.00;;;;;;5029191;28;20021;-47
2022/05/31 13:41:13;;;;;;;5.80;3.40;;;16.50;63.10;;;;;;5027211;28;20040;-45
2022/05/31 13:43:51;;;;;;;4.68;3.15;;;16.50;61.20;;;;;;5030105;28;20025;-48
2022/05/31 13:46:22;;;;;;;6.00;3.75;;;16.50;64.70;;;;;;5038564;28;20033;-46
2022/05/31 13:48:52;;;;;;;4.15;2.58;;;16.50;63.40;;;;;;5037950;28;20469;-49